Observation data for Haskell on 05/04/2021      Previous  Date  Next       Current Mesonet Observations  Soil Data  Daily Summary Page  Observations in Plain Language
KHA1 040500Z 35019G26KT 16/12 A2979 RMK A01 T01590121  RH  081%=      5-min Rain = 0
KHA1 040505Z 34019G25KT 16/12 A298 RMK A01 T01580121  RH  082%=      5-min Rain = 0
KHA1 040510Z 34018G24KT 16/12 A2981 RMK A01 T01570121  RH  082%=      5-min Rain = 0
KHA1 040515Z 34015G20KT 16/12 A2981 RMK A01 T01560121  RH  083%=      5-min Rain = 0
KHA1 040520Z 33016KT 16/12 A2982 RMK A01 T01550122  RH  084%=      5-min Rain = 0
KHA1 040525Z 33015KT 16/12 A2983 RMK A01 T01550122  RH  084%=      5-min Rain = 0
KHA1 040530Z 34016KT 15/12 A2983 RMK A01 T01540122  RH  084%=      5-min Rain = 0
KHA1 040535Z 34015G21KT 15/12 A2983 RMK A01 T01530121  RH  084%=      5-min Rain = 0
KHA1 040540Z 35016G22KT 15/12 A2983 RMK A01 T01540120  RH  084%=      5-min Rain = 0
KHA1 040545Z 34014G19KT 15/12 A2984 RMK A01 T01530121  RH  084%=      5-min Rain = 0
KHA1 040550Z 34015G20KT 15/12 A2985 RMK A01 T01530120  RH  084%=      5-min Rain = 0
KHA1 040555Z 34014KT 15/12 A2985 RMK A01 T01520120  RH  084%=      5-min Rain = 0
KHA1 040600Z 34014KT 15/12 A2985 RMK A01 T01510120  RH  085%=      5-min Rain = 0
KHA1 040605Z 35016KT 15/12 A2985 RMK A01 T01510118  RH  084%=      5-min Rain = 0
KHA1 040610Z 35018G24KT 15/12 A2986 RMK A01 T01520118  RH  083%=      5-min Rain = 0
KHA1 040615Z 35020G25KT 15/12 A2986 RMK A01 T01520117  RH  083%=      5-min Rain = 0
KHA1 040620Z 35019G26KT 15/12 A2987 RMK A01 T01520117  RH  082%=      5-min Rain = 0
KHA1 040625Z 35017G22KT 15/12 A2987 RMK A01 T01510118  RH  083%=      5-min Rain = 0
KHA1 040630Z 35017G22KT 15/12 A2987 RMK A01 T01500117  RH  084%=      5-min Rain = 0
KHA1 040635Z 35018G23KT 15/12 A2987 RMK A01 T01500116  RH  083%=      5-min Rain = 0
KHA1 040640Z 35017G22KT 15/12 A2987 RMK A01 T01490116  RH  084%=      5-min Rain = 0
KHA1 040645Z 35016G21KT 15/12 A2987 RMK A01 T01470115  RH  084%=      5-min Rain = 0
KHA1 040650Z 35017G22KT 15/11 A2987 RMK A01 T01460114  RH  084%=      5-min Rain = 0
KHA1 040655Z 35018KT 15/11 A2986 RMK A01 T01460113  RH  084%=      5-min Rain = 0
KHA1 040700Z 35020KT 15/11 A2986 RMK A01 T01450111  RH  083%=      5-min Rain = 0
KHA1 040705Z 35018G24KT 14/11 A2987 RMK A01 T01440110  RH  083%=      5-min Rain = 0
KHA1 040710Z 35018G24KT 14/11 A2987 RMK A01 T01430108  RH  082%=      5-min Rain = 0
KHA1 040715Z 35016KT 14/11 A2988 RMK A01 T01420107  RH  082%=      5-min Rain = 0
KHA1 040720Z 36016G22KT 14/11 A2988 RMK A01 T01410106  RH  082%=      5-min Rain = 0
KHA1 040725Z 00016G23KT 14/11 A2988 RMK A01 T01410105  RH  082%=      5-min Rain = 0
KHA1 040730Z 01015G20KT 14/10 A2988 RMK A01 T01400104  RH  082%=      5-min Rain = 0
KHA1 040735Z 00015G20KT 14/10 A2988 RMK A01 T01390103  RH  082%=      5-min Rain = 0
KHA1 040740Z 01015G20KT 14/10 A2988 RMK A01 T01390103  RH  081%=      5-min Rain = 0
KHA1 040745Z 00013KT 14/10 A2988 RMK A01 T01380103  RH  083%=      5-min Rain = 0
KHA1 040750Z 36011KT 14/10 A2989 RMK A01 T01360104  RH  083%=      5-min Rain = 0
KHA1 040755Z 36011KT 14/10 A2989 RMK A01 T01360104  RH  084%=      5-min Rain = 0
KHA1 040800Z 36012KT 13/10 A2989 RMK A01 T01340104  RH  085%=      5-min Rain = 0
KHA1 040805Z 35011KT 13/11 A2989 RMK A01 T01330105  RH  086%=      5-min Rain = 0
KHA1 040810Z 35011KT 13/11 A2989 RMK A01 T01330105  RH  086%=      5-min Rain = 0
KHA1 040815Z 34011KT 13/11 A2989 RMK A01 T01330106  RH  086%=      5-min Rain = 0
KHA1 040820Z 34010KT 13/11 A2989 RMK A01 T01320106  RH  087%=      5-min Rain = 0
KHA1 040825Z 34011KT 13/11 A2989 RMK A01 T01310106  RH  088%=      5-min Rain = 0
KHA1 040830Z 33012KT 13/11 A299 RMK A01 T01320107  RH  087%=      5-min Rain = 0
KHA1 040835Z 33013KT 13/11 A299 RMK A01 T01320106  RH  087%=      5-min Rain = 0
KHA1 040840Z 33014KT 13/11 A299 RMK A01 T01330106  RH  087%=      5-min Rain = 0
KHA1 040845Z 34015G20KT 13/11 A2989 RMK A01 T01340106  RH  086%=      5-min Rain = 0
KHA1 040850Z 34014G19KT 13/11 A2989 RMK A01 T01330107  RH  087%=      5-min Rain = 0
KHA1 040855Z 34014G19KT 13/11 A2989 RMK A01 T01330107  RH  087%=      5-min Rain = 0
KHA1 040900Z 34014KT 13/11 A299 RMK A01 T01330107  RH  087%=      5-min Rain = 0
KHA1 040905Z 34013G18KT 13/11 A2991 RMK A01 T01330107  RH  087%=      5-min Rain = 0
KHA1 040910Z 34012KT 13/11 A2991 RMK A01 T01320107  RH  088%=      5-min Rain = 0
KHA1 040915Z 34015G20KT 13/11 A299 RMK A01 T01320106  RH  087%=      5-min Rain = 0
KHA1 040920Z 34014KT 13/11 A299 RMK A01 T01310106  RH  088%=      5-min Rain = 0
KHA1 040925Z 34015G21KT 13/11 A2991 RMK A01 T01300105  RH  088%=      5-min Rain = 0
KHA1 040930Z 34015KT 13/11 A2991 RMK A01 T01290105  RH  088%=      5-min Rain = 0
KHA1 040935Z 34013G18KT 13/11 A2991 RMK A01 T01280105  RH  089%=      5-min Rain = 0
KHA1 040940Z 34014KT 13/11 A2992 RMK A01 T01270105  RH  089%=      5-min Rain = 0
KHA1 040945Z 34014KT 13/11 A2992 RMK A01 T01270105  RH  089%=      5-min Rain = 0
KHA1 040950Z 34013G18KT 13/11 A2992 RMK A01 T01270105  RH  089%=      5-min Rain = 0
KHA1 040955Z 34014KT 13/11 A2993 RMK A01 T01270105  RH  089%=      5-min Rain = 0
KHA1 041000Z 34014KT 13/11 A2993 RMK A01 T01270105  RH  089%=      5-min Rain = 0
KHA1 041005Z 34014KT 13/10 A2993 RMK A01 T01270104  RH  089%=      5-min Rain = 0
KHA1 041010Z 33014KT 13/11 A2993 RMK A01 T01270105  RH  089%=      5-min Rain = 0
KHA1 041015Z 33014KT 13/10 A2994 RMK A01 T01270104  RH  089%=      5-min Rain = 0
KHA1 041020Z 34012KT 13/10 A2995 RMK A01 T01270104  RH  089%=      5-min Rain = 0
KHA1 041025Z 34013KT 13/10 A2995 RMK A01 T01270103  RH  089%=      5-min Rain = 0
KHA1 041030Z 34012KT 13/10 A2995 RMK A01 T01270103  RH  088%=      5-min Rain = 0
KHA1 041035Z 34011KT 13/10 A2995 RMK A01 T01260103  RH  089%=      5-min Rain = 0
KHA1 041040Z 34012KT 13/10 A2995 RMK A01 T01260103  RH  089%=      5-min Rain = 0
KHA1 041045Z 34013KT 13/10 A2995 RMK A01 T01260102  RH  088%=      5-min Rain = 0
KHA1 041050Z 34013KT 13/10 A2996 RMK A01 T01250102  RH  089%=      5-min Rain = 0
KHA1 041055Z 33012KT 13/10 A2996 RMK A01 T01250102  RH  089%=      5-min Rain = 0
KHA1 041100Z 34011KT 13/10 A2996 RMK A01 T01250102  RH  089%=      5-min Rain = 0
KHA1 041105Z 33012KT 12/10 A2997 RMK A01 T01240102  RH  089%=      5-min Rain = 0
KHA1 041110Z 33012KT 12/10 A2997 RMK A01 T01240102  RH  089%=      5-min Rain = 0
KHA1 041115Z 33011KT 12/10 A2998 RMK A01 T01240101  RH  089%=      5-min Rain = 0
KHA1 041120Z 33012KT 12/10 A2998 RMK A01 T01230101  RH  089%=      5-min Rain = 0
KHA1 041125Z 33013KT 12/10 A2997 RMK A01 T01220100  RH  089%=      5-min Rain = 0
KHA1 041130Z 33012KT 12/10 A2998 RMK A01 T01210099  RH  089%=      5-min Rain = 0
KHA1 041135Z 33011KT 12/10 A2998 RMK A01 T01200099  RH  090%=      5-min Rain = 0
KHA1 041140Z 33012KT 12/10 A2998 RMK A01 T01190099  RH  090%=      5-min Rain = 0
KHA1 041145Z 33013KT 12/10 A2999 RMK A01 T01180098  RH  090%=      5-min Rain = 0
KHA1 041150Z 32012KT 12/10 A2998 RMK A01 T01170099  RH  091%=      5-min Rain = 0
KHA1 041155Z 33012KT 12/10 A2999 RMK A01 T01170098  RH  091%=      5-min Rain = 0
KHA1 041200Z 32011KT 12/10 A2999 RMK A01 T01170098  RH  091%=      5-min Rain = 0
KHA1 041205Z 33012KT 12/10 A2999 RMK A01 T01170098  RH  091%=      5-min Rain = 0
KHA1 041210Z 33014KT 12/10 A2999 RMK A01 T01170098  RH  091%=      5-min Rain = 0
KHA1 041215Z 33013KT 12/10 A2999 RMK A01 T01170097  RH  091%=      5-min Rain = 0
KHA1 041220Z 33012KT 12/10 A2999 RMK A01 T01170098  RH  091%=      5-min Rain = 0
KHA1 041225Z 33012KT 12/10 A30 RMK A01 T01180098  RH  090%=      5-min Rain = 0
KHA1 041230Z 33011KT 12/10 A3001 RMK A01 T01190098  RH  090%=      5-min Rain = 0
KHA1 041235Z 33011KT 12/10 A3001 RMK A01 T01200099  RH  090%=      5-min Rain = 0
KHA1 041240Z 33012KT 12/10 A3002 RMK A01 T01210099  RH  089%=      5-min Rain = 0
KHA1 041245Z 33013KT 12/10 A3002 RMK A01 T01230099  RH  089%=      5-min Rain = 0
KHA1 041250Z 33013KT 12/10 A3002 RMK A01 T01240100  RH  088%=      5-min Rain = 0
KHA1 041255Z 33015KT 13/10 A3003 RMK A01 T01250100  RH  087%=      5-min Rain = 0
KHA1 041300Z 33014KT 13/10 A3003 RMK A01 T01270101  RH  087%=      5-min Rain = 0
KHA1 041305Z 33016KT 13/10 A3003 RMK A01 T01290101  RH  086%=      5-min Rain = 0
KHA1 041310Z 33014G19KT 13/10 A3004 RMK A01 T01300102  RH  086%=      5-min Rain = 0
KHA1 041315Z 33016KT 13/10 A3004 RMK A01 T01320103  RH  085%=      5-min Rain = 0
KHA1 041320Z 33015KT 13/10 A3004 RMK A01 T01330104  RH  085%=      5-min Rain = 0
KHA1 041325Z 33016KT 13/10 A3004 RMK A01 T01330104  RH  085%=      5-min Rain = 0
KHA1 041330Z 33017G22KT 13/10 A3004 RMK A01 T01330103  RH  085%=      5-min Rain = 0
KHA1 041335Z 33019G24KT 13/10 A3003 RMK A01 T01340102  RH  084%=      5-min Rain = 0
KHA1 041340Z 34020G25KT 14/10 A3003 RMK A01 T01360102  RH  083%=      5-min Rain = 0
KHA1 041345Z 34019KT 14/10 A3004 RMK A01 T01370102  RH  082%=      5-min Rain = 0
KHA1 041350Z 33017G22KT 14/10 A3004 RMK A01 T01380104  RH  083%=      5-min Rain = 0
KHA1 041355Z 34017G23KT 14/10 A3004 RMK A01 T01380104  RH  083%=      5-min Rain = 0
KHA1 041400Z 34017G22KT 14/10 A3004 RMK A01 T01370103  RH  082%=      5-min Rain = 0
KHA1 041405Z 34019KT 14/10 A3005 RMK A01 T01370101  RH  081%=      5-min Rain = 0
KHA1 041410Z 34018G24KT 14/10 A3005 RMK A01 T01370101  RH  082%=      5-min Rain = 0
KHA1 041415Z 34016G21KT 14/10 A3005 RMK A01 T01380103  RH  082%=      5-min Rain = 0
KHA1 041420Z 34020KT 14/10 A3005 RMK A01 T01380101  RH  081%=      5-min Rain = 0
KHA1 041425Z 34019G24KT 14/10 A3005 RMK A01 T01380101  RH  081%=      5-min Rain = 0
KHA1 041430Z 34019G25KT 14/10 A3005 RMK A01 T01400102  RH  080%=      5-min Rain = 0
KHA1 041435Z 35017G24KT 14/10 A3006 RMK A01 T01420104  RH  080%=      5-min Rain = 0
KHA1 041440Z 34018KT 14/10 A3006 RMK A01 T01410102  RH  080%=      5-min Rain = 0
KHA1 041445Z 35016G22KT 14/10 A3006 RMK A01 T01410103  RH  081%=      5-min Rain = 0
KHA1 041450Z 35017G22KT 14/10 A3007 RMK A01 T01400100  RH  079%=      5-min Rain = 0
KHA1 041455Z 35016G22KT 15/10 A3006 RMK A01 T01450104  RH  079%=      5-min Rain = 0
KHA1 041500Z 35019G24KT 15/10 A3006 RMK A01 T01470103  RH  078%=      5-min Rain = 0
KHA1 041505Z 35018G25KT 15/10 A3007 RMK A01 T01480103  RH  077%=      5-min Rain = 0
KHA1 041510Z 34016G22KT 15/11 A3007 RMK A01 T01520106  RH  076%=      5-min Rain = 0
KHA1 041515Z 34018KT 15/10 A3007 RMK A01 T01520103  RH  075%=      5-min Rain = 0
KHA1 041520Z 34018G23KT 15/10 A3007 RMK A01 T01510103  RH  076%=      5-min Rain = 0
KHA1 041525Z 34018G23KT 15/10 A3008 RMK A01 T01490101  RH  075%=      5-min Rain = 0
KHA1 041530Z 35017G22KT 15/10 A3008 RMK A01 T01490101  RH  075%=      5-min Rain = 0
KHA1 041535Z 35016G22KT 15/10 A3008 RMK A01 T01500102  RH  076%=      5-min Rain = 0
KHA1 041540Z 35019G24KT 15/10 A3008 RMK A01 T01470098  RH  075%=      5-min Rain = 0
KHA1 041545Z 35018KT 15/10 A3008 RMK A01 T01470096  RH  074%=      5-min Rain = 0
KHA1 041550Z 35018G23KT 15/10 A3008 RMK A01 T01490096  RH  073%=      5-min Rain = 0
KHA1 041555Z 36017G23KT 15/10 A3008 RMK A01 T01520098  RH  072%=      5-min Rain = 0
KHA1 041600Z 36018KT 16/10 A3008 RMK A01 T01550099  RH  072%=      5-min Rain = 0
KHA1 041605Z 35017G22KT 16/10 A3008 RMK A01 T01580101  RH  071%=      5-min Rain = 0
KHA1 041610Z 35018KT 16/10 A3008 RMK A01 T01580099  RH  070%=      5-min Rain = 0
KHA1 041615Z 34019KT 16/10 A3008 RMK A01 T01560096  RH  070%=      5-min Rain = 0
KHA1 041620Z 35017G25KT 16/10 A3009 RMK A01 T01580098  RH  070%=      5-min Rain = 0
KHA1 041625Z 34017G23KT 16/10 A3009 RMK A01 T01590097  RH  069%=      5-min Rain = 0
KHA1 041630Z 35015G20KT 16/10 A3009 RMK A01 T01600099  RH  069%=      5-min Rain = 0
KHA1 041635Z 35015G20KT 16/10 A3009 RMK A01 T01590097  RH  068%=      5-min Rain = 0
KHA1 041640Z 34014G20KT 16/10 A3009 RMK A01 T01590097  RH  069%=      5-min Rain = 0
KHA1 041645Z 35016KT 16/10 A3009 RMK A01 T01590097  RH  069%=      5-min Rain = 0
KHA1 041650Z 35016G21KT 16/10 A3009 RMK A01 T01610098  RH  068%=      5-min Rain = 0
KHA1 041655Z 35015KT 16/10 A3009 RMK A01 T01620100  RH  069%=      5-min Rain = 0
KHA1 041700Z 36015G20KT 17/10 A3009 RMK A01 T01650102  RH  069%=      5-min Rain = 0
KHA1 041705Z 35017KT 16/10 A3009 RMK A01 T01640099  RH  067%=      5-min Rain = 0
KHA1 041710Z 36015G20KT 16/10 A3009 RMK A01 T01640100  RH  068%=      5-min Rain = 0
KHA1 041715Z 34016KT 17/10 A3008 RMK A01 T01650096  RH  066%=      5-min Rain = 0
KHA1 041720Z 35015G20KT 17/10 A3009 RMK A01 T01650099  RH  067%=      5-min Rain = 0
KHA1 041725Z 34015KT 17/10 A3008 RMK A01 T01700099  RH  065%=      5-min Rain = 0
KHA1 041730Z 34014KT 17/10 A3008 RMK A01 T01710101  RH  065%=      5-min Rain = 0
KHA1 041735Z 35015KT 17/10 A3008 RMK A01 T01700100  RH  065%=      5-min Rain = 0
KHA1 041740Z 34015G20KT 17/10 A3008 RMK A01 T01730100  RH  064%=      5-min Rain = 0
KHA1 041745Z 35015G20KT 17/10 A3008 RMK A01 T01730099  RH  064%=      5-min Rain = 0
KHA1 041750Z 34014G21KT 18/10 A3008 RMK A01 T01750102  RH  064%=      5-min Rain = 0
KHA1 041755Z 35016KT 18/10 A3008 RMK A01 T01750100  RH  063%=      5-min Rain = 0
KHA1 041800Z 34015KT 18/10 A3007 RMK A01 T01770101  RH  063%=      5-min Rain = 0
KHA1 041805Z 34013G19KT 18/11 A3007 RMK A01 T01820105  RH  063%=      5-min Rain = 0
KHA1 041810Z 34015KT 18/10 A3007 RMK A01 T01820101  RH  061%=      5-min Rain = 0
KHA1 041815Z 35014G24KT 18/10 A3007 RMK A01 T01800100  RH  062%=      5-min Rain = 0
KHA1 041820Z 36015KT 18/10 A3007 RMK A01 T01800101  RH  062%=      5-min Rain = 0
KHA1 041825Z 36013G18KT 18/10 A3006 RMK A01 T01820103  RH  062%=      5-min Rain = 0
KHA1 041830Z 35013KT 18/10 A3006 RMK A01 T01820103  RH  062%=      5-min Rain = 0
KHA1 041835Z 33014KT 19/10 A3006 RMK A01 T01860102  RH  060%=      5-min Rain = 0
KHA1 041840Z 34013G18KT 19/11 A3006 RMK A01 T01890106  RH  060%=      5-min Rain = 0
KHA1 041845Z 34013KT 19/11 A3006 RMK A01 T01890105  RH  060%=      5-min Rain = 0
KHA1 041850Z 34014KT 19/10 A3005 RMK A01 T01910104  RH  059%=      5-min Rain = 0
KHA1 041855Z 34013G21KT 19/10 A3005 RMK A01 T01890103  RH  059%=      5-min Rain = 0
KHA1 041900Z 34013KT 19/10 A3005 RMK A01 T01910104  RH  059%=      5-min Rain = 0
KHA1 041905Z 35015KT 19/11 A3005 RMK A01 T01930105  RH  059%=      5-min Rain = 0
KHA1 041910Z 35013KT 19/10 A3005 RMK A01 T01930103  RH  058%=      5-min Rain = 0
KHA1 041915Z 36013G18KT 20/11 A3005 RMK A01 T01950107  RH  059%=      5-min Rain = 0
KHA1 041920Z 35012G17KT 19/11 A3005 RMK A01 T01940105  RH  058%=      5-min Rain = 0
KHA1 041925Z 00013G19KT 19/10 A3005 RMK A01 T01910102  RH  058%=      5-min Rain = 0
KHA1 041930Z 36011G16KT 19/11 A3005 RMK A01 T01920107  RH  060%=      5-min Rain = 0
KHA1 041935Z 35013G19KT 20/11 A3005 RMK A01 T01950105  RH  058%=      5-min Rain = 0
KHA1 041940Z 34011G16KT 20/11 A3005 RMK A01 T01980105  RH  057%=      5-min Rain = 0
KHA1 041945Z 35012G17KT 20/10 A3005 RMK A01 T01990104  RH  056%=      5-min Rain = 0
KHA1 041950Z 36012G18KT 20/11 A3005 RMK A01 T02000107  RH  057%=      5-min Rain = 0
KHA1 041955Z 35011KT 20/10 A3005 RMK A01 T01980103  RH  056%=      5-min Rain = 0
KHA1 042000Z 34011KT 20/10 A3005 RMK A01 T02030102  RH  054%=      5-min Rain = 0
KHA1 042005Z 34014KT 20/10 A3005 RMK A01 T02030101  RH  054%=      5-min Rain = 0
KHA1 042010Z 35013G20KT 20/10 A3004 RMK A01 T02020100  RH  053%=      5-min Rain = 0
KHA1 042015Z 35011G16KT 20/10 A3004 RMK A01 T02010100  RH  054%=      5-min Rain = 0
KHA1 042020Z 34012G20KT 20/10 A3004 RMK A01 T02020099  RH  053%=      5-min Rain = 0
KHA1 042025Z 00014G19KT 21/11 A3004 RMK A01 T02060105  RH  054%=      5-min Rain = 0
KHA1 042030Z 01011G17KT 20/11 A3004 RMK A01 T02000106  RH  056%=      5-min Rain = 0
KHA1 042035Z 01011G16KT 20/10 A3004 RMK A01 T02020102  RH  054%=      5-min Rain = 0
KHA1 042040Z 02011G16KT 20/11 A3004 RMK A01 T02030108  RH  056%=      5-min Rain = 0
KHA1 042045Z 36011G17KT 20/10 A3004 RMK A01 T02040103  RH  054%=      5-min Rain = 0
KHA1 042050Z 36011G16KT 21/10 A3004 RMK A01 T02100104  RH  052%=      5-min Rain = 0
KHA1 042055Z 02010KT 21/11 A3004 RMK A01 T02080107  RH  054%=      5-min Rain = 0
KHA1 042100Z 01011G17KT 21/10 A3004 RMK A01 T02050104  RH  054%=      5-min Rain = 0
KHA1 042105Z 01011G16KT 20/10 A3004 RMK A01 T02030102  RH  054%=      5-min Rain = 0
KHA1 042110Z 00011G18KT 20/10 A3003 RMK A01 T02040101  RH  053%=      5-min Rain = 0
KHA1 042115Z 01009G15KT 20/10 A3003 RMK A01 T02010102  RH  054%=      5-min Rain = 0
KHA1 042120Z 02010G15KT 21/11 A3003 RMK A01 T02050105  RH  054%=      5-min Rain = 0
KHA1 042125Z 03010KT 21/11 A3003 RMK A01 T02060107  RH  055%=      5-min Rain = 0
KHA1 042130Z 35011KT 21/10 A3003 RMK A01 T02130104  RH  051%=      5-min Rain = 0
KHA1 042135Z 36011G16KT 21/10 A3003 RMK A01 T02120102  RH  051%=      5-min Rain = 0
KHA1 042140Z 02012KT 21/11 A3003 RMK A01 T02080105  RH  053%=      5-min Rain = 0
KHA1 042145Z 02011KT 21/11 A3003 RMK A01 T02080107  RH  054%=      5-min Rain = 0
KHA1 042150Z 01009G15KT 21/10 A3003 RMK A01 T02050100  RH  053%=      5-min Rain = 0
KHA1 042155Z 01008KT 20/10 A3003 RMK A01 T02020099  RH  053%=      5-min Rain = 0
KHA1 042200Z 01008KT 21/11 A3003 RMK A01 T02070108  RH  055%=      5-min Rain = 0
KHA1 042205Z 00008KT 21/10 A3003 RMK A01 T02140103  RH  051%=      5-min Rain = 0
KHA1 042210Z 02008KT 21/11 A3003 RMK A01 T02140105  RH  052%=      5-min Rain = 0
KHA1 042215Z 01009G16KT 21/10 A3003 RMK A01 T02120104  RH  052%=      5-min Rain = 0
KHA1 042220Z 35009KT 21/10 A3003 RMK A01 T02090100  RH  051%=      5-min Rain = 0
KHA1 042225Z 03010KT 21/11 A3003 RMK A01 T02090106  RH  053%=      5-min Rain = 0
KHA1 042230Z 04008KT 20/10 A3003 RMK A01 T02000099  RH  054%=      5-min Rain = 0
KHA1 042235Z 04008KT 20/10 A3003 RMK A01 T02030100  RH  053%=      5-min Rain = 0
KHA1 042240Z 03007KT 21/10 A3002 RMK A01 T02070103  RH  053%=      5-min Rain = 0
KHA1 042245Z 02008G13KT 21/10 A3002 RMK A01 T02080102  RH  053%=      5-min Rain = 0
KHA1 042250Z 04008KT 21/10 A3003 RMK A01 T02050101  RH  053%=      5-min Rain = 0
KHA1 042255Z 03009KT 21/10 A3003 RMK A01 T02060104  RH  054%=      5-min Rain = 0
KHA1 042300Z 03008KT 21/10 A3003 RMK A01 T02050101  RH  053%=      5-min Rain = 0
KHA1 042305Z 04007KT 21/10 A3003 RMK A01 T02050097  RH  052%=      5-min Rain = 0
KHA1 042310Z 04008KT 21/10 A3003 RMK A01 T02070099  RH  052%=      5-min Rain = 0
KHA1 042315Z 03007KT 21/10 A3003 RMK A01 T02070104  RH  053%=      5-min Rain = 0
KHA1 042320Z 03007KT 21/10 A3002 RMK A01 T02060101  RH  053%=      5-min Rain = 0
KHA1 042325Z 03007KT 21/10 A3002 RMK A01 T02060099  RH  052%=      5-min Rain = 0
KHA1 042330Z 03006KT 21/10 A3003 RMK A01 T02050099  RH  052%=      5-min Rain = 0
KHA1 042335Z 04005KT 21/10 A3003 RMK A01 T02060101  RH  053%=      5-min Rain = 0
KHA1 042340Z 06007KT 21/10 A3002 RMK A01 T02050098  RH  052%=      5-min Rain = 0
KHA1 042345Z 05007KT 21/10 A3002 RMK A01 T02050098  RH  052%=      5-min Rain = 0
KHA1 042350Z 06005KT 20/10 A3002 RMK A01 T02040097  RH  052%=      5-min Rain = 0
KHA1 042355Z 04007KT 20/10 A3003 RMK A01 T02030099  RH  053%=      5-min Rain = 0
KHA1 050000Z 05004KT 20/10 A3003 RMK A01 T02030097  RH  052%=      5-min Rain = 0
KHA1 050005Z 02005KT 20/10 A3003 RMK A01 T02040103  RH  054%=      5-min Rain = 0
KHA1 050010Z 01005KT 20/11 A3003 RMK A01 T02030105  RH  055%=      5-min Rain = 0
KHA1 050015Z 03004KT 20/10 A3003 RMK A01 T02030101  RH  054%=      5-min Rain = 0
KHA1 050020Z 05003KT 20/10 A3003 RMK A01 T02030100  RH  053%=      5-min Rain = 0
KHA1 050025Z 06006KT 20/10 A3003 RMK A01 T02010098  RH  053%=      5-min Rain = 0
KHA1 050030Z 07006KT 20/10 A3003 RMK A01 T02000096  RH  053%=      5-min Rain = 0
KHA1 050035Z 08004KT 20/10 A3003 RMK A01 T02000099  RH  054%=      5-min Rain = 0
KHA1 050040Z 07005KT 20/10 A3003 RMK A01 T02000098  RH  053%=      5-min Rain = 0
KHA1 050045Z 07004KT 20/10 A3003 RMK A01 T01990098  RH  054%=      5-min Rain = 0
KHA1 050050Z 07003KT 20/10 A3003 RMK A01 T01970099  RH  055%=      5-min Rain = 0
KHA1 050055Z 07004KT 20/10 A3003 RMK A01 T01960101  RH  056%=      5-min Rain = 0
KHA1 050100Z 06004KT 19/10 A3004 RMK A01 T01940099  RH  056%=      5-min Rain = 0
KHA1 050105Z 07004KT 19/10 A3004 RMK A01 T01910102  RH  058%=      5-min Rain = 0
KHA1 050110Z 07003KT 19/10 A3004 RMK A01 T01890103  RH  059%=      5-min Rain = 0
KHA1 050115Z 08003KT 19/11 A3004 RMK A01 T01870106  RH  061%=      5-min Rain = 0
KHA1 050120Z 10003KT 19/11 A3004 RMK A01 T01860106  RH  062%=      5-min Rain = 0
KHA1 050125Z 10003KT 18/10 A3004 RMK A01 T01840104  RH  062%=      5-min Rain = 0
KHA1 050130Z 10003KT 18/10 A3004 RMK A01 T01830103  RH  062%=      5-min Rain = 0
KHA1 050135Z 10003KT 18/10 A3004 RMK A01 T01820102  RH  062%=      5-min Rain = 0
KHA1 050140Z 11003KT 18/11 A3004 RMK A01 T01790107  RH  065%=      5-min Rain = 0
KHA1 050145Z 11003KT 18/11 A3004 RMK A01 T01750109  RH  068%=      5-min Rain = 0
KHA1 050150Z 11003KT 18/11 A3004 RMK A01 T01750109  RH  067%=      5-min Rain = 0
KHA1 050155Z 12004KT 17/11 A3005 RMK A01 T01710110  RH  070%=      5-min Rain = 0
KHA1 050200Z 12003KT 17/11 A3005 RMK A01 T01690109  RH  070%=      5-min Rain = 0
KHA1 050205Z 12004KT 17/11 A3005 RMK A01 T01690107  RH  069%=      5-min Rain = 0
KHA1 050210Z 12004KT 17/11 A3005 RMK A01 T01670106  RH  069%=      5-min Rain = 0
KHA1 050215Z 12004KT 17/11 A3006 RMK A01 T01660105  RH  070%=      5-min Rain = 0
KHA1 050220Z 11004KT 17/11 A3006 RMK A01 T01660105  RH  070%=      5-min Rain = 0
KHA1 050225Z 11004KT 17/10 A3006 RMK A01 T01670104  RH  069%=      5-min Rain = 0
KHA1 050230Z 12003KT 17/11 A3006 RMK A01 T01660106  RH  070%=      5-min Rain = 0
KHA1 050235Z 12003KT 16/11 A3007 RMK A01 T01640107  RH  071%=      5-min Rain = 0
KHA1 050240Z 12003KT 16/11 A3007 RMK A01 T01630105  RH  071%=      5-min Rain = 0
KHA1 050245Z 12003KT 16/11 A3007 RMK A01 T01620106  RH  072%=      5-min Rain = 0
KHA1 050250Z 12003KT 16/10 A3007 RMK A01 T01620103  RH  070%=      5-min Rain = 0
KHA1 050255Z 12003KT 16/10 A3008 RMK A01 T01630101  RH  069%=      5-min Rain = 0
KHA1 050300Z 12003KT 16/10 A3008 RMK A01 T01600103  RH  071%=      5-min Rain = 0
KHA1 050305Z 12003KT 16/10 A3008 RMK A01 T01590103  RH  072%=      5-min Rain = 0
KHA1 050310Z 12003KT 16/10 A3008 RMK A01 T01570102  RH  072%=      5-min Rain = 0
KHA1 050315Z 12003KT 16/10 A3008 RMK A01 T01560104  RH  074%=      5-min Rain = 0
KHA1 050320Z 13003KT 16/10 A3008 RMK A01 T01550103  RH  073%=      5-min Rain = 0
KHA1 050325Z 14003KT 16/10 A3009 RMK A01 T01570102  RH  072%=      5-min Rain = 0
KHA1 050330Z 14002KT 16/10 A3009 RMK A01 T01580099  RH  070%=      5-min Rain = 0
KHA1 050335Z 12002KT 16/10 A3009 RMK A01 T01570100  RH  072%=      5-min Rain = 0
KHA1 050340Z 12002KT 16/10 A3009 RMK A01 T01560098  RH  071%=      5-min Rain = 0
KHA1 050345Z 11002KT 15/10 A301 RMK A01 T01510102  RH  075%=      5-min Rain = 0
KHA1 050350Z 10002KT 15/10 A301 RMK A01 T01450101  RH  078%=      5-min Rain = 0
KHA1 050355Z 11002KT 14/10 A301 RMK A01 T01410104  RH  081%=      5-min Rain = 0
KHA1 050400Z 10002KT 14/10 A301 RMK A01 T01380102  RH  082%=      5-min Rain = 0
KHA1 050405Z 11003KT 14/10 A301 RMK A01 T01380101  RH  081%=      5-min Rain = 0
KHA1 050410Z 11003KT 14/11 A301 RMK A01 T01420108  RH  083%=      5-min Rain = 0
KHA1 050415Z 10004KT 14/11 A301 RMK A01 T01440111  RH  083%=      5-min Rain = 0
KHA1 050420Z 11003KT 15/11 A301 RMK A01 T01450106  RH  080%=      5-min Rain = 0
KHA1 050425Z 10003KT 15/10 A301 RMK A01 T01480101  RH  076%=      5-min Rain = 0
KHA1 050430Z 10003KT 15/10 A301 RMK A01 T01480101  RH  076%=      5-min Rain = 0
KHA1 050435Z 10003KT 15/10 A301 RMK A01 T01500103  RH  076%=      5-min Rain = 0
KHA1 050440Z 10004KT 15/10 A3011 RMK A01 T01490102  RH  076%=      5-min Rain = 0
KHA1 050445Z 10004KT 15/10 A3011 RMK A01 T01490100  RH  075%=      5-min Rain = 0
KHA1 050450Z 10004KT 15/10 A3011 RMK A01 T01490098  RH  074%=      5-min Rain = 0
KHA1 050455Z 11004KT 15/10 A3011 RMK A01 T01490099  RH  074%=      5-min Rain = 0

Page generated in 0.0089 seconds.